Oscoda, Michigan
Current Conditions -  °F | °C
As of 3:53 PM on Tuesday 25 Nov 2014 (Local Time) from KOSC Reporting Station
Broken Clouds Broken Clouds  
Wind Chill: 25°   Ceiling: 5000
Heat Index: 31°   Visibility: 10mi
Dew Point: 29°   Wind: 6mph
Humidity: 92%   Direction: 260°W
Pressure: 29.98"   Gusts: NA
Location:  44.42°N, 83.33°W
Report Text: KOSC 252053Z AUTO 26005KT 10SM SCT016 SCT028 BKN050 00/M01 A2998 RMK AO2 T10051016
Loading
Personal Weather Stations






























Interactive Weather Map New forecast layout! Learn more

10-Day Weather Forecast

Advertisements
Track Severe Weather on mobile